Meath Environmental Platform

Observations for Trim Patrick St

Time AQI Temp °C Hum % Pres Pa CO μg/m³ H₂S μg/m³ NO μg/m³ NO₂ μg/m³ O₃ μg/m³ SO₂ μg/m³ PM1 μg/m³ PM2.5 μg/m³ PM10 μg/m³
Saturday 8 August 2026
16:32 2 32.9 33 69,399 0 0 0.57 10.53 71.26 17.47 2 7.48 8.23
16:31 2 32.7 33 69,391 0 0 0.61 13.09 87.45 17.99 2 7.5 8.25
16:30 2 32.6 32 69,381 0 0 0.65 13.05 65.58 17.37 2.86 9.12 10.03
16:29 2 32.6 34 69,371 0 0 0.59 12.43 69.95 17.26 2.86 9.02 9.92
16:28 2 32.6 33 69,387 0 0 0.66 11.78 75.9 17.64 2 7.5 8.26
16:27 2 32.6 33 69,379 0 3.72 0.66 15.43 94.12 17.66 2 7.51 8.26
16:26 2 32.7 32 69,395 0 0.32 0.67 11.99 88.74 18.44 2 8.34 9.17
16:25 2 32.8 32 69,389 0 0 0.64 14.35 88.86 18.15 2 7.54 8.3
16:24 2 32.9 32 69,408 0 0 0.65 11.14 67.79 18.43 2.86 8.36 9.2
16:23 2 33 32 69,406 0 0 0.6 14.86 88.44 18.18 2 7.55 8.3
16:22 2 33.1 32 69,406 0 0 0.55 12.25 70.06 16.8 2.86 8.33 9.16
16:21 2 33.2 31 69,406 0 0 0.53 15.34 76.36 17.06 2.86 8.39 9.23
16:20 2 33.2 32 69,401 0 0 0.52 11.75 79.3 19.5 2 7.54 8.29
16:19 2 33.3 32 69,365 0 0 0.51 14.33 64.98 16.47 2 7.56 8.32
16:18 2 33.2 32 69,404 0 0 0.51 13.03 82.68 17.66 2.86 9.93 10.92
16:17 2 33.2 32 69,395 0 0 0.57 13.63 89.79 17.91 2 7.54 8.3
16:14 2 32.8 32 69,399 0 0 0.63 16.14 76.74 16.18 2 8.32 9.16
16:12 2 32.4 34 69,355 0 11.92 0.63 14.94 96.49 17.84 2.86 8.19 9.01
16:09 2 32.1 33 69,338 0 2.56 0.71 12.3 85.87 17.01 2.86 8.27 9.09
16:08 2 32 33 69,320 0 2.92 0.74 15.26 96.61 16.21 2 8.28 9.11